createdAt,value
2023-02-09T00:00:04.662Z,14.82
2023-02-09T00:00:36.624Z,13.13
2023-02-09T00:01:11.178Z,13.95
2023-02-09T00:01:43.070Z,16.48
2023-02-09T00:02:15.040Z,17.02
2023-02-09T00:02:47.901Z,13.10
2023-02-09T00:03:19.762Z,13.85
2023-02-09T00:03:52.457Z,14.27
2023-02-09T00:04:25.650Z,36.03
2023-02-09T00:04:57.445Z,37.22
2023-02-09T00:05:29.222Z,75.10
2023-02-09T00:06:01.928Z,69.88
2023-02-09T00:06:34.724Z,56.58
2023-02-09T00:07:06.583Z,43.63
2023-02-09T00:07:38.446Z,46.30
2023-02-09T00:08:10.264Z,57.10
2023-02-09T00:08:43.274Z,48.75
2023-02-09T00:09:15.334Z,43.60
2023-02-09T00:09:47.165Z,32.58
2023-02-09T00:10:20.095Z,22.23
2023-02-09T00:10:51.987Z,16.95
2023-02-09T00:11:46.321Z,15.65
2023-02-09T00:12:37.138Z,16.25
2023-02-09T00:13:25.271Z,12.20
2023-02-09T00:13:59.404Z,11.95
2023-02-09T00:14:33.380Z,14.68
2023-02-09T00:15:07.048Z,12.68
2023-02-09T00:15:40.262Z,15.52
2023-02-09T00:16:12.409Z,16.55
2023-02-09T00:16:44.253Z,13.35
2023-02-09T00:17:16.079Z,15.90
2023-02-09T00:17:48.827Z,16.77
2023-02-09T00:18:21.300Z,15.45
2023-02-09T00:18:54.079Z,15.68
2023-02-09T00:19:25.959Z,13.48
2023-02-09T00:19:57.757Z,13.98
2023-02-09T00:20:30.606Z,14.95
2023-02-09T00:21:06.318Z,14.10
2023-02-09T00:21:38.253Z,13.95
2023-02-09T00:22:11.037Z,14.90
2023-02-09T00:22:42.875Z,17.63
2023-02-09T00:23:14.668Z,16.10
2023-02-09T00:23:47.522Z,15.05
2023-02-09T00:24:19.362Z,14.30
2023-02-09T00:24:51.160Z,15.60
2023-02-09T00:25:23.942Z,14.30
2023-02-09T00:25:58.751Z,15.48
2023-02-09T00:26:30.792Z,17.75
2023-02-09T00:27:03.662Z,17.52
2023-02-09T00:27:35.758Z,21.10
2023-02-09T00:28:07.785Z,16.98
2023-02-09T00:28:40.572Z,16.60
2023-02-09T00:29:14.063Z,14.63
2023-02-09T00:29:45.982Z,16.15
2023-02-09T00:30:18.770Z,13.27
2023-02-09T00:30:50.652Z,14.85
2023-02-09T00:31:22.807Z,16.15
2023-02-09T00:31:55.751Z,17.27
2023-02-09T00:32:27.635Z,15.98
2023-02-09T00:32:59.505Z,15.93
2023-02-09T00:33:32.363Z,17.10
2023-02-09T00:34:04.413Z,15.60
2023-02-09T00:34:37.299Z,16.70
2023-02-09T00:35:10.107Z,16.85
2023-02-09T00:35:43.262Z,14.70
2023-02-09T00:36:15.251Z,14.80
2023-02-09T00:36:48.077Z,17.98
2023-02-09T00:37:19.896Z,17.83
2023-02-09T00:37:51.777Z,12.50
2023-02-09T00:38:24.619Z,13.45
2023-02-09T00:38:56.961Z,18.33
2023-02-09T00:39:29.620Z,21.08
2023-02-09T00:40:02.398Z,18.45
2023-02-09T00:40:34.434Z,17.70
2023-02-09T00:41:06.392Z,15.65
2023-02-09T00:41:56.725Z,21.80
2023-02-09T00:42:29.535Z,16.60
2023-02-09T00:43:01.472Z,19.55
2023-02-09T00:43:34.248Z,14.30
2023-02-09T00:44:07.101Z,17.15
2023-02-09T00:44:40.655Z,17.77
2023-02-09T00:45:13.700Z,18.55
2023-02-09T00:45:45.537Z,14.02
2023-02-09T00:46:17.360Z,17.73
2023-02-09T00:46:49.388Z,17.85
2023-02-09T00:47:22.160Z,15.23
2023-02-09T00:47:53.975Z,17.63
2023-02-09T00:48:26.277Z,17.08
2023-02-09T00:48:59.060Z,16.52
2023-02-09T00:49:31.551Z,17.90
2023-02-09T00:50:06.591Z,17.45
2023-02-09T00:50:39.450Z,16.58
2023-02-09T00:51:11.272Z,14.90
2023-02-09T00:51:43.115Z,14.65
2023-02-09T00:52:15.914Z,19.77
2023-02-09T00:52:47.769Z,14.30
2023-02-09T00:53:20.999Z,20.33
2023-02-09T00:53:53.851Z,14.98
2023-02-09T00:54:26.009Z,13.57
2023-02-09T00:54:57.812Z,15.85
2023-02-09T00:55:30.580Z,15.13
2023-02-09T00:56:02.438Z,20.40
2023-02-09T00:56:34.291Z,19.27
2023-02-09T00:57:07.371Z,21.88
2023-02-09T00:57:39.270Z,16.92
2023-02-09T00:58:11.156Z,21.83
2023-02-09T00:58:43.926Z,16.92
2023-02-09T00:59:15.877Z,16.52
2023-02-09T00:59:49.050Z,18.48
2023-02-09T01:00:22.023Z,20.35
2023-02-09T01:00:53.969Z,21.05
2023-02-09T01:01:25.884Z,20.20
2023-02-09T01:01:58.696Z,16.58
2023-02-09T01:02:30.516Z,16.27
2023-02-09T01:03:02.389Z,19.20
2023-02-09T01:03:35.234Z,16.38
2023-02-09T01:04:07.253Z,19.88
2023-02-09T01:04:39.271Z,16.60
2023-02-09T01:05:12.271Z,23.60
2023-02-09T01:05:44.071Z,16.90
2023-02-09T01:06:15.863Z,17.83
2023-02-09T01:06:48.658Z,18.60
2023-02-09T01:07:20.512Z,18.55
2023-02-09T01:07:52.616Z,18.63
2023-02-09T01:08:25.378Z,17.73
2023-02-09T01:08:58.136Z,18.52
2023-02-09T01:09:30.170Z,21.08
2023-02-09T01:10:03.342Z,23.50
2023-02-09T01:10:35.199Z,18.98
2023-02-09T01:11:08.236Z,15.82
2023-02-09T01:11:40.065Z,15.30
2023-02-09T01:12:13.174Z,19.65
2023-02-09T01:12:45.011Z,16.48
2023-02-09T01:13:17.208Z,16.17
2023-02-09T01:13:50.005Z,17.05
2023-02-09T01:14:22.156Z,15.73
2023-02-09T01:14:55.355Z,23.67
2023-02-09T01:15:28.139Z,19.02
2023-02-09T01:15:59.915Z,20.17
2023-02-09T01:16:32.407Z,24.45
2023-02-09T01:17:05.328Z,20.45
2023-02-09T01:17:38.275Z,19.08
2023-02-09T01:18:10.078Z,17.15
2023-02-09T01:18:42.866Z,19.45
2023-02-09T01:19:15.666Z,19.65
2023-02-09T01:19:51.553Z,18.80
2023-02-09T01:20:23.506Z,17.70
2023-02-09T01:20:56.291Z,15.90
2023-02-09T01:21:28.916Z,16.95
2023-02-09T01:22:01.821Z,18.00
2023-02-09T01:22:33.802Z,18.65
2023-02-09T01:23:05.604Z,15.70
2023-02-09T01:23:38.386Z,17.65
2023-02-09T01:24:14.057Z,15.20
2023-02-09T01:24:46.876Z,18.30
2023-02-09T01:25:18.826Z,19.10
2023-02-09T01:25:50.716Z,15.27
2023-02-09T01:26:23.027Z,18.00
2023-02-09T01:26:55.820Z,16.05
2023-02-09T01:27:27.698Z,15.48
2023-02-09T01:28:00.503Z,17.55
2023-02-09T01:28:32.345Z,16.60
2023-02-09T01:29:04.233Z,16.48
2023-02-09T01:29:37.207Z,17.80
2023-02-09T01:30:11.748Z,17.38
2023-02-09T01:30:43.988Z,15.20
2023-02-09T01:31:23.964Z,18.05
2023-02-09T01:31:55.971Z,16.90
2023-02-09T01:32:29.022Z,17.15
2023-02-09T01:33:00.824Z,17.30
2023-02-09T01:33:33.152Z,17.15
2023-02-09T01:34:06.131Z,18.92
2023-02-09T01:34:38.379Z,16.45
2023-02-09T01:35:10.821Z,18.35
2023-02-09T01:35:43.612Z,17.30
2023-02-09T01:36:15.545Z,21.52
2023-02-09T01:36:48.274Z,15.63
2023-02-09T01:37:21.925Z,19.50
2023-02-09T01:37:53.755Z,18.23
2023-02-09T01:38:25.771Z,19.30
2023-02-09T01:39:00.065Z,21.15
2023-02-09T01:39:32.095Z,19.77
2023-02-09T01:40:05.041Z,16.92
2023-02-09T01:40:37.855Z,20.30
2023-02-09T01:41:09.834Z,16.23
2023-02-09T01:41:43.374Z,20.42
2023-02-09T01:42:16.565Z,17.65
2023-02-09T01:42:48.418Z,19.38
2023-02-09T01:43:22.530Z,18.38
2023-02-09T01:43:57.776Z,17.42
2023-02-09T01:45:22.581Z,18.05
2023-02-09T01:45:55.833Z,21.80
2023-02-09T01:46:29.624Z,17.55
2023-02-09T01:47:02.423Z,23.20
2023-02-09T01:47:42.485Z,15.02
2023-02-09T01:48:16.889Z,18.05
2023-02-09T01:48:51.512Z,18.00
2023-02-09T01:49:26.216Z,15.43
2023-02-09T01:49:59.168Z,19.35
2023-02-09T01:50:34.991Z,17.08
2023-02-09T01:51:08.019Z,19.55
2023-02-09T01:51:44.018Z,15.40
2023-02-09T01:52:19.452Z,18.60
2023-02-09T01:52:52.465Z,18.38
2023-02-09T01:53:24.790Z,16.27
2023-02-09T01:53:57.691Z,16.05
2023-02-09T01:54:35.575Z,19.30
2023-02-09T01:55:11.742Z,21.10
2023-02-09T01:55:50.046Z,16.60
2023-02-09T01:56:27.171Z,20.08
2023-02-09T01:57:02.635Z,20.55
2023-02-09T01:57:38.466Z,17.08
2023-02-09T01:58:14.209Z,21.55
2023-02-09T01:58:46.656Z,17.15
2023-02-09T01:59:19.363Z,18.15
2023-02-09T01:59:54.862Z,19.05
2023-02-09T02:00:27.145Z,18.52
2023-02-09T02:01:00.978Z,19.95
2023-02-09T02:01:34.031Z,19.00
2023-02-09T02:02:07.308Z,15.65
2023-02-09T02:02:40.026Z,18.50
2023-02-09T02:03:16.367Z,16.50
2023-02-09T02:03:48.231Z,21.70
2023-02-09T02:04:20.984Z,18.88
2023-02-09T02:04:54.728Z,18.58
2023-02-09T02:05:28.600Z,19.88
2023-02-09T02:06:06.105Z,16.02
2023-02-09T02:06:38.229Z,20.20
2023-02-09T02:07:15.947Z,19.83
2023-02-09T02:07:55.654Z,23.10
2023-02-09T02:08:31.761Z,17.38
2023-02-09T02:09:08.054Z,19.77
2023-02-09T02:09:42.964Z,19.63
2023-02-09T02:10:15.462Z,23.13
2023-02-09T02:10:48.353Z,21.17
2023-02-09T02:11:21.335Z,20.90
2023-02-09T02:11:53.191Z,20.20
2023-02-09T02:12:26.946Z,18.02
2023-02-09T02:12:59.389Z,20.17
2023-02-09T02:13:31.308Z,17.23
2023-02-09T02:14:04.126Z,21.45
2023-02-09T02:14:37.792Z,21.60
2023-02-09T02:15:09.984Z,19.38
2023-02-09T02:15:52.308Z,19.00
2023-02-09T02:16:42.066Z,18.17
2023-02-09T02:17:26.990Z,18.73
2023-02-09T02:18:13.813Z,18.30
2023-02-09T02:19:09.928Z,16.15
2023-02-09T02:20:17.231Z,18.98
2023-02-09T02:21:25.026Z,16.55
2023-02-09T02:22:30.244Z,21.95
2023-02-09T02:23:18.688Z,22.48
2023-02-09T02:24:05.765Z,19.20
2023-02-09T02:25:03.456Z,15.13
2023-02-09T02:26:21.427Z,18.65
2023-02-09T02:26:57.564Z,16.30
2023-02-09T02:27:35.658Z,15.05
2023-02-09T02:28:31.222Z,17.88
2023-02-09T02:29:28.968Z,14.60
2023-02-09T02:30:34.864Z,18.98
2023-02-09T02:31:47.671Z,14.85
2023-02-09T02:32:38.831Z,16.63
2023-02-09T02:33:21.374Z,16.90
2023-02-09T02:34:04.520Z,18.20
2023-02-09T02:34:43.940Z,16.23
2023-02-09T02:35:22.714Z,17.60
2023-02-09T02:35:59.678Z,19.63
2023-02-09T02:36:39.897Z,15.73
2023-02-09T02:37:23.061Z,17.25
2023-02-09T02:38:02.428Z,17.52
2023-02-09T02:38:38.818Z,14.95
2023-02-09T02:39:22.364Z,18.90
2023-02-09T02:40:02.802Z,12.73
2023-02-09T02:40:57.702Z,18.27
2023-02-09T02:41:53.602Z,18.48
2023-02-09T02:42:51.822Z,15.05
2023-02-09T02:43:38.768Z,17.10
2023-02-09T02:44:18.290Z,17.10
2023-02-09T02:45:00.376Z,14.15
2023-02-09T02:45:40.084Z,17.63
2023-02-09T02:46:19.768Z,15.88
2023-02-09T02:46:54.973Z,14.95
2023-02-09T02:47:30.586Z,16.27
2023-02-09T02:48:12.044Z,16.70
2023-02-09T02:48:51.786Z,15.05
2023-02-09T02:49:31.834Z,17.10
2023-02-09T02:50:10.445Z,15.23
2023-02-09T02:50:47.814Z,16.38
2023-02-09T02:51:26.752Z,14.50
2023-02-09T02:52:02.787Z,15.25
2023-02-09T02:52:34.599Z,16.08
2023-02-09T02:53:09.568Z,15.20
2023-02-09T02:53:46.028Z,12.55
2023-02-09T02:54:23.038Z,17.88
2023-02-09T02:55:01.519Z,16.85
2023-02-09T02:55:36.598Z,12.65
2023-02-09T02:56:14.464Z,13.98
2023-02-09T02:56:51.304Z,12.57
2023-02-09T02:57:26.931Z,14.90
2023-02-09T02:58:02.673Z,12.35
2023-02-09T02:58:39.678Z,15.63
2023-02-09T02:59:15.847Z,12.05
2023-02-09T02:59:52.498Z,12.85
2023-02-09T03:00:32.619Z,13.15
2023-02-09T03:01:09.096Z,15.43
2023-02-09T03:01:47.159Z,14.38
2023-02-09T03:02:22.505Z,14.75
2023-02-09T03:02:58.348Z,16.67
2023-02-09T03:03:35.427Z,12.40
2023-02-09T03:04:08.550Z,44.85
2023-02-09T03:04:42.578Z,34.28
2023-02-09T03:05:16.829Z,24.63
2023-02-09T03:05:49.601Z,25.65
2023-02-09T03:06:21.538Z,21.05
2023-02-09T03:06:54.545Z,16.65
2023-02-09T03:07:26.533Z,15.18
2023-02-09T03:07:58.306Z,17.75
2023-02-09T03:08:31.077Z,14.35
2023-02-09T03:09:03.608Z,12.10
2023-02-09T03:09:35.430Z,14.68
2023-02-09T03:10:25.370Z,12.48
2023-02-09T03:10:57.390Z,12.38
2023-02-09T03:11:35.352Z,11.45
2023-02-09T03:12:14.621Z,11.10
2023-02-09T03:12:57.677Z,13.55
2023-02-09T03:13:38.920Z,15.25
2023-02-09T03:14:33.069Z,16.13
2023-02-09T03:15:18.980Z,11.30
2023-02-09T03:16:06.966Z,12.35
2023-02-09T03:16:44.359Z,13.23
2023-02-09T03:17:30.379Z,10.95
2023-02-09T03:18:12.113Z,11.85
2023-02-09T03:18:58.140Z,14.00
2023-02-09T03:19:38.621Z,11.80
2023-02-09T03:20:14.366Z,13.43
2023-02-09T03:20:53.232Z,14.30
2023-02-09T03:21:34.338Z,16.55
2023-02-09T03:22:12.735Z,13.52
2023-02-09T03:22:51.403Z,15.07
2023-02-09T03:23:31.699Z,19.98
2023-02-09T03:24:08.692Z,18.33
2023-02-09T03:24:46.272Z,20.00
2023-02-09T03:25:22.713Z,19.15
2023-02-09T03:25:57.740Z,18.75
2023-02-09T03:26:35.859Z,26.33
2023-02-09T03:27:15.743Z,25.00
2023-02-09T03:27:53.670Z,22.63
2023-02-09T03:28:31.531Z,20.35
2023-02-09T03:29:03.888Z,19.83
2023-02-09T03:29:37.697Z,19.52
2023-02-09T03:30:14.474Z,19.27
2023-02-09T03:30:49.885Z,22.65
2023-02-09T03:31:23.037Z,23.30
2023-02-09T03:31:56.815Z,26.33
2023-02-09T03:32:28.755Z,25.83
2023-02-09T03:33:02.378Z,20.40
2023-02-09T03:33:38.690Z,20.83
2023-02-09T03:34:12.222Z,18.42
2023-02-09T03:34:45.608Z,19.88
2023-02-09T03:35:21.031Z,22.95
2023-02-09T03:35:56.016Z,22.17
2023-02-09T03:36:34.431Z,18.60
2023-02-09T03:37:06.218Z,20.98
2023-02-09T03:37:38.071Z,24.85
2023-02-09T03:38:10.900Z,21.55
2023-02-09T03:38:42.741Z,19.38
2023-02-09T03:39:14.568Z,21.50
2023-02-09T03:39:47.406Z,19.00
2023-02-09T03:40:19.726Z,22.88
2023-02-09T03:40:52.807Z,23.00
2023-02-09T03:41:25.601Z,22.58
2023-02-09T03:41:57.481Z,18.42
2023-02-09T03:42:29.315Z,22.75
2023-02-09T03:43:02.069Z,24.95
2023-02-09T03:43:52.305Z,20.42
2023-02-09T03:44:27.109Z,18.38
2023-02-09T03:44:58.948Z,22.42
2023-02-09T03:45:31.730Z,21.27
2023-02-09T03:46:03.702Z,22.25
2023-02-09T03:46:35.552Z,29.27
2023-02-09T03:47:10.269Z,37.40
2023-02-09T03:47:42.160Z,69.65
2023-02-09T03:48:13.974Z,80.93
2023-02-09T03:48:46.043Z,60.20
2023-02-09T03:49:20.280Z,45.90
2023-02-09T03:49:52.076Z,32.70
2023-02-09T03:50:24.972Z,30.75
2023-02-09T03:50:56.796Z,27.08
2023-02-09T03:51:28.612Z,23.63
2023-02-09T03:52:01.492Z,22.02
2023-02-09T03:52:33.461Z,28.20
2023-02-09T03:53:06.441Z,25.27
2023-02-09T03:53:38.267Z,19.55
2023-02-09T03:54:11.039Z,21.48
2023-02-09T03:54:43.366Z,23.13
2023-02-09T03:55:15.320Z,21.63
2023-02-09T03:55:48.121Z,23.48
2023-02-09T03:56:19.953Z,20.08
2023-02-09T03:56:51.793Z,19.92
2023-02-09T03:57:24.590Z,22.80
2023-02-09T03:57:56.393Z,20.42
2023-02-09T03:58:28.227Z,19.27
2023-02-09T03:59:00.052Z,21.63
2023-02-09T03:59:35.296Z,23.95
2023-02-09T04:00:08.641Z,23.33
2023-02-09T04:00:40.493Z,29.83
2023-02-09T04:01:13.350Z,24.23
2023-02-09T04:01:45.262Z,23.67
2023-02-09T04:02:17.113Z,27.90
2023-02-09T04:02:49.968Z,23.77
2023-02-09T04:03:21.816Z,29.23
2023-02-09T04:03:53.673Z,23.60
2023-02-09T04:04:27.944Z,21.60
2023-02-09T04:04:59.771Z,31.13
2023-02-09T04:05:31.750Z,26.33
2023-02-09T04:06:05.311Z,25.83
2023-02-09T04:06:37.196Z,23.80
2023-02-09T04:07:09.003Z,20.10
2023-02-09T04:07:41.990Z,24.02
2023-02-09T04:08:13.818Z,23.20
2023-02-09T04:08:45.596Z,26.33
2023-02-09T04:09:18.755Z,28.15
2023-02-09T04:09:50.797Z,21.65
2023-02-09T04:10:22.591Z,22.80
2023-02-09T04:10:55.336Z,22.70
2023-02-09T04:11:27.574Z,25.08
2023-02-09T04:12:00.337Z,25.95
2023-02-09T04:12:32.168Z,22.85
2023-02-09T04:13:03.983Z,22.98
2023-02-09T04:13:36.743Z,20.00
2023-02-09T04:14:09.019Z,23.80
2023-02-09T04:14:40.828Z,21.65
2023-02-09T04:15:13.618Z,22.52
2023-02-09T04:15:45.452Z,22.92
2023-02-09T04:16:18.013Z,21.75
2023-02-09T04:16:50.860Z,21.92
2023-02-09T04:17:23.101Z,21.98
2023-02-09T04:17:54.936Z,26.25
2023-02-09T04:18:27.811Z,26.95
2023-02-09T04:18:59.592Z,20.20
2023-02-09T04:19:33.676Z,22.85
2023-02-09T04:20:06.224Z,22.20
2023-02-09T04:20:38.077Z,30.52
2023-02-09T04:21:10.905Z,21.33
2023-02-09T04:21:42.696Z,22.42
2023-02-09T04:22:14.586Z,24.08
2023-02-09T04:22:47.343Z,28.75
2023-02-09T04:23:21.020Z,24.98
2023-02-09T04:23:53.097Z,23.05
2023-02-09T04:24:26.000Z,25.75
2023-02-09T04:24:57.778Z,26.27
2023-02-09T04:25:29.619Z,23.70
2023-02-09T04:26:02.583Z,24.42
2023-02-09T04:26:34.860Z,28.63
2023-02-09T04:27:06.677Z,17.65
2023-02-09T04:27:39.416Z,20.90
2023-02-09T04:28:11.406Z,23.63
2023-02-09T04:28:43.675Z,23.90
2023-02-09T04:29:16.487Z,22.40
2023-02-09T04:29:48.269Z,22.77
2023-02-09T04:30:20.296Z,54.45
2023-02-09T04:30:54.709Z,53.78
2023-02-09T04:31:26.982Z,67.70
2023-02-09T04:31:58.929Z,68.80
2023-02-09T04:32:31.812Z,50.92
2023-02-09T04:33:03.917Z,32.00
2023-02-09T04:33:36.009Z,28.73
2023-02-09T04:34:08.919Z,25.05
2023-02-09T04:34:42.113Z,26.45
2023-02-09T04:35:14.155Z,29.00
2023-02-09T04:35:46.103Z,24.50
2023-02-09T04:36:18.994Z,28.17
2023-02-09T04:36:51.897Z,23.65
2023-02-09T04:37:23.703Z,25.50
2023-02-09T04:37:55.498Z,23.27
2023-02-09T04:38:28.371Z,23.38
2023-02-09T04:39:00.193Z,23.27
2023-02-09T04:39:32.070Z,22.02
2023-02-09T04:40:07.612Z,25.23
2023-02-09T04:40:39.549Z,28.63
2023-02-09T04:41:11.484Z,29.83
2023-02-09T04:41:44.271Z,24.77
2023-02-09T04:42:16.094Z,22.20
2023-02-09T04:42:48.223Z,23.52
2023-02-09T04:43:21.455Z,25.05
2023-02-09T04:43:53.262Z,22.25
2023-02-09T04:44:26.120Z,25.40
2023-02-09T04:44:58.094Z,20.80
2023-02-09T04:45:29.944Z,22.08
2023-02-09T04:46:03.053Z,20.05
2023-02-09T04:46:34.944Z,24.42
2023-02-09T04:47:06.765Z,19.00
2023-02-09T04:47:39.565Z,21.77
2023-02-09T04:48:13.639Z,23.40
2023-02-09T04:48:46.075Z,22.52
2023-02-09T04:49:18.839Z,26.73
2023-02-09T04:49:51.966Z,24.38
2023-02-09T04:50:23.946Z,24.50
2023-02-09T04:50:56.882Z,24.25
2023-02-09T04:51:28.760Z,23.17
2023-02-09T04:52:00.583Z,22.70
2023-02-09T04:52:33.437Z,24.45
2023-02-09T04:53:05.508Z,25.92
2023-02-09T04:53:37.465Z,24.38
2023-02-09T04:54:10.268Z,22.13
2023-02-09T04:54:42.092Z,24.02
2023-02-09T04:55:13.940Z,20.67
2023-02-09T04:55:47.787Z,23.42
2023-02-09T04:56:19.567Z,24.08
2023-02-09T04:57:11.986Z,21.77
2023-02-09T04:58:02.435Z,23.75
2023-02-09T04:58:53.465Z,25.90
2023-02-09T04:59:39.098Z,26.40
2023-02-09T05:00:13.159Z,24.05
2023-02-09T05:00:45.539Z,26.77
2023-02-09T05:01:20.984Z,25.67
2023-02-09T05:01:53.751Z,26.60
2023-02-09T05:02:25.679Z,27.75
2023-02-09T05:02:57.578Z,22.58
2023-02-09T05:03:30.956Z,22.67
2023-02-09T05:04:02.795Z,21.70
2023-02-09T05:04:34.627Z,24.95
2023-02-09T05:05:09.167Z,33.35
2023-02-09T05:05:41.938Z,23.40
2023-02-09T05:06:13.944Z,23.35
2023-02-09T05:06:46.755Z,24.70
2023-02-09T05:07:18.653Z,48.78
2023-02-09T05:07:50.472Z,42.08
2023-02-09T05:08:23.483Z,38.67
2023-02-09T05:08:55.249Z,37.97
2023-02-09T05:09:28.096Z,29.30
2023-02-09T05:09:59.933Z,26.40
2023-02-09T05:10:32.482Z,24.17
2023-02-09T05:11:05.403Z,24.20
2023-02-09T05:11:37.201Z,25.77
2023-02-09T05:12:10.026Z,23.90
2023-02-09T05:12:42.843Z,24.23
2023-02-09T05:13:14.750Z,21.13
2023-02-09T05:13:46.708Z,24.48
2023-02-09T05:14:19.486Z,22.70
2023-02-09T05:14:51.313Z,25.42
2023-02-09T05:15:23.143Z,19.92
2023-02-09T05:15:56.274Z,23.73
2023-02-09T05:16:28.232Z,24.23
2023-02-09T05:17:00.119Z,23.92
2023-02-09T05:17:33.235Z,23.88
2023-02-09T05:18:05.412Z,22.23
2023-02-09T05:18:38.257Z,19.65
2023-02-09T05:19:10.263Z,20.77
2023-02-09T05:19:42.032Z,27.70
2023-02-09T05:20:16.163Z,28.02
2023-02-09T05:20:48.467Z,22.50
2023-02-09T05:21:20.439Z,24.90
2023-02-09T05:21:53.210Z,19.75
2023-02-09T05:22:25.052Z,21.92
2023-02-09T05:22:56.963Z,22.70
2023-02-09T05:23:29.816Z,22.08
2023-02-09T05:24:01.847Z,26.73
2023-02-09T05:24:34.599Z,23.58
2023-02-09T05:25:06.782Z,22.92
2023-02-09T05:25:39.103Z,25.88
2023-02-09T05:26:11.890Z,19.13
2023-02-09T05:26:43.719Z,23.70
2023-02-09T05:27:15.594Z,23.17
2023-02-09T05:27:48.348Z,20.05
2023-02-09T05:28:20.323Z,25.52
2023-02-09T05:28:53.094Z,18.42
2023-02-09T05:29:24.902Z,22.95
2023-02-09T05:29:56.727Z,26.63
2023-02-09T05:30:30.811Z,22.00
2023-02-09T05:31:02.764Z,22.90
2023-02-09T05:31:34.761Z,23.13
2023-02-09T05:32:07.794Z,24.17
2023-02-09T05:32:39.676Z,21.33
2023-02-09T05:33:11.528Z,18.33
2023-02-09T05:33:44.328Z,23.92
2023-02-09T05:34:16.144Z,21.63
2023-02-09T05:34:47.920Z,28.27
2023-02-09T05:35:22.304Z,20.13
2023-02-09T05:35:55.776Z,22.75
2023-02-09T05:36:27.798Z,23.88
2023-02-09T05:37:00.663Z,22.40
2023-02-09T05:37:32.650Z,21.73
2023-02-09T05:38:05.656Z,23.08
2023-02-09T05:38:37.472Z,25.00
2023-02-09T05:39:09.274Z,19.27
2023-02-09T05:39:42.090Z,21.45
2023-02-09T05:40:14.218Z,23.10
2023-02-09T05:40:46.548Z,21.50
2023-02-09T05:41:33.573Z,22.10
2023-02-09T05:42:18.170Z,24.98
2023-02-09T05:42:49.977Z,18.30
2023-02-09T05:43:22.750Z,19.77
2023-02-09T05:43:54.568Z,24.48
2023-02-09T05:44:26.367Z,36.92
2023-02-09T05:44:59.098Z,47.00
2023-02-09T05:45:30.899Z,35.97
2023-02-09T05:46:05.707Z,29.58
2023-02-09T05:46:39.131Z,27.85
2023-02-09T05:47:11.678Z,27.13
2023-02-09T05:47:44.446Z,26.00
2023-02-09T05:48:16.918Z,25.80
2023-02-09T05:48:48.683Z,27.85
2023-02-09T05:49:21.445Z,21.85
2023-02-09T05:49:53.387Z,22.83
2023-02-09T05:50:27.642Z,26.90
2023-02-09T05:50:59.462Z,21.60
2023-02-09T05:51:31.295Z,21.58
2023-02-09T05:52:04.444Z,25.50
2023-02-09T05:52:36.266Z,22.48
2023-02-09T05:53:09.235Z,22.70
2023-02-09T05:53:41.040Z,21.90
2023-02-09T05:54:12.895Z,23.95
2023-02-09T05:54:47.526Z,21.85
2023-02-09T05:55:19.340Z,28.35
2023-02-09T05:55:51.209Z,21.00
2023-02-09T05:56:23.953Z,23.95
2023-02-09T05:56:55.782Z,22.45
2023-02-09T05:57:27.694Z,26.48
2023-02-09T05:58:00.497Z,20.85
2023-02-09T05:58:32.437Z,23.95
2023-02-09T05:59:04.804Z,26.38
2023-02-09T05:59:37.678Z,22.40
2023-02-09T06:00:10.967Z,21.85
2023-02-09T06:00:44.158Z,27.27
2023-02-09T06:01:16.166Z,20.48
2023-02-09T06:01:47.939Z,23.25
2023-02-09T06:02:20.870Z,25.92
2023-02-09T06:02:52.987Z,27.55
2023-02-09T06:03:24.870Z,25.67
2023-02-09T06:03:57.626Z,21.48
2023-02-09T06:04:29.860Z,23.63
2023-02-09T06:05:01.732Z,20.42
2023-02-09T06:05:35.908Z,25.85
2023-02-09T06:06:07.922Z,26.10
2023-02-09T06:06:39.745Z,26.10
2023-02-09T06:07:12.524Z,26.85
2023-02-09T06:07:44.322Z,26.13
2023-02-09T06:08:17.072Z,21.73
2023-02-09T06:08:48.851Z,21.80
2023-02-09T06:09:21.062Z,23.30
2023-02-09T06:09:53.822Z,20.50
2023-02-09T06:10:25.611Z,23.23
2023-02-09T06:10:57.470Z,21.17
2023-02-09T06:11:30.392Z,20.65
2023-02-09T06:12:02.223Z,20.90
2023-02-09T06:12:33.995Z,21.88
2023-02-09T06:13:06.792Z,24.08
2023-02-09T06:13:38.633Z,20.65
2023-02-09T06:14:10.587Z,21.23
2023-02-09T06:14:43.368Z,17.10
2023-02-09T06:15:16.127Z,19.77
2023-02-09T06:15:48.965Z,19.60
2023-02-09T06:16:20.920Z,26.85
2023-02-09T06:16:52.753Z,19.60
2023-02-09T06:17:25.747Z,16.42
2023-02-09T06:17:57.598Z,22.88
2023-02-09T06:18:30.395Z,22.25
2023-02-09T06:19:02.275Z,17.85
2023-02-09T06:19:34.057Z,20.55
2023-02-09T06:20:08.072Z,17.55
2023-02-09T06:20:41.248Z,18.20
2023-02-09T06:21:13.191Z,17.73
2023-02-09T06:21:46.419Z,20.92
2023-02-09T06:22:18.339Z,20.42
2023-02-09T06:22:50.248Z,39.13
2023-02-09T06:23:23.155Z,19.67
2023-02-09T06:23:55.119Z,19.85
2023-02-09T06:24:28.127Z,20.55
2023-02-09T06:25:00.139Z,21.38
2023-02-09T06:25:32.079Z,23.65
2023-02-09T06:26:07.812Z,20.25
2023-02-09T06:26:40.174Z,20.25
2023-02-09T06:27:12.803Z,22.65
2023-02-09T06:27:45.592Z,20.90
2023-02-09T06:28:17.492Z,20.52
2023-02-09T06:28:49.368Z,20.15
2023-02-09T06:29:22.171Z,19.92
2023-02-09T06:29:54.015Z,18.30
2023-02-09T06:30:26.300Z,18.42
2023-02-09T06:30:59.276Z,23.45
2023-02-09T06:31:31.302Z,20.65
2023-02-09T06:32:03.390Z,19.48
2023-02-09T06:32:36.251Z,20.98
2023-02-09T06:33:08.083Z,17.65
2023-02-09T06:33:40.164Z,22.75
2023-02-09T06:34:12.952Z,20.80
2023-02-09T06:34:44.784Z,18.48
2023-02-09T06:35:16.754Z,17.38
2023-02-09T06:35:52.347Z,19.98
2023-02-09T06:36:24.365Z,21.83
2023-02-09T06:36:57.128Z,21.75
2023-02-09T06:37:28.987Z,16.95
2023-02-09T06:38:00.780Z,18.80
2023-02-09T06:38:34.219Z,18.27
2023-02-09T06:39:07.855Z,17.23
2023-02-09T06:39:40.649Z,19.10
2023-02-09T06:40:13.101Z,21.05
2023-02-09T06:40:46.957Z,21.75
2023-02-09T06:41:20.022Z,20.33
2023-02-09T06:41:52.229Z,16.80
2023-02-09T06:42:25.024Z,19.77
2023-02-09T06:42:56.808Z,17.25
2023-02-09T06:43:28.742Z,21.08
2023-02-09T06:44:01.616Z,16.80
2023-02-09T06:44:33.490Z,20.08
2023-02-09T06:45:05.496Z,22.15
2023-02-09T06:45:40.046Z,18.02
2023-02-09T06:46:12.921Z,17.08
2023-02-09T06:46:45.029Z,17.80
2023-02-09T06:47:17.831Z,21.65
2023-02-09T06:47:49.709Z,24.55
2023-02-09T06:48:21.520Z,18.13
2023-02-09T06:48:54.428Z,21.67
2023-02-09T06:49:26.705Z,17.95
2023-02-09T06:49:59.566Z,20.17
2023-02-09T06:50:31.467Z,16.35
2023-02-09T06:51:10.101Z,18.55
2023-02-09T06:51:42.012Z,16.02
2023-02-09T06:52:14.954Z,27.13
2023-02-09T06:52:47.013Z,19.15
2023-02-09T06:53:18.857Z,16.63
2023-02-09T06:53:51.824Z,14.52
2023-02-09T06:54:24.332Z,18.23
2023-02-09T06:54:56.146Z,19.83
2023-02-09T06:55:28.952Z,17.65
2023-02-09T06:56:01.678Z,18.67
2023-02-09T06:56:34.504Z,16.70
2023-02-09T06:57:06.338Z,19.55
2023-02-09T06:57:38.363Z,18.90
2023-02-09T06:58:11.140Z,16.33
2023-02-09T06:58:43.067Z,20.08
2023-02-09T06:59:16.979Z,19.20
2023-02-09T06:59:48.809Z,15.77
2023-02-09T07:00:21.319Z,32.78
2023-02-09T07:00:54.142Z,16.63
2023-02-09T07:01:26.020Z,26.17
2023-02-09T07:01:58.834Z,20.35
2023-02-09T07:02:30.781Z,18.60
2023-02-09T07:03:03.191Z,17.90
2023-02-09T07:03:36.492Z,24.08
2023-02-09T07:04:08.289Z,20.00
2023-02-09T07:04:41.027Z,17.75
2023-02-09T07:05:14.413Z,18.45
2023-02-09T07:05:46.236Z,19.83
2023-02-09T07:06:22.759Z,30.77
2023-02-09T07:06:55.135Z,17.80
2023-02-09T07:07:28.060Z,19.27
2023-02-09T07:07:59.962Z,21.70
2023-02-09T07:08:32.799Z,22.23
2023-02-09T07:09:04.668Z,18.73
2023-02-09T07:09:37.471Z,26.88
2023-02-09T07:10:12.526Z,19.58
2023-02-09T07:10:44.627Z,18.40
2023-02-09T07:11:19.281Z,20.85
2023-02-09T07:11:51.166Z,18.70
2023-02-09T07:12:23.934Z,19.95
2023-02-09T07:12:58.111Z,19.75
2023-02-09T07:13:31.860Z,20.30
2023-02-09T07:14:03.744Z,18.63
2023-02-09T07:14:36.507Z,19.48
2023-02-09T07:15:09.279Z,20.98
2023-02-09T07:15:41.112Z,19.55
2023-02-09T07:16:14.722Z,24.00
2023-02-09T07:16:46.614Z,21.00
2023-02-09T07:17:18.449Z,19.02
2023-02-09T07:17:51.229Z,19.90
2023-02-09T07:18:23.254Z,18.65
2023-02-09T07:18:56.024Z,20.75
2023-02-09T07:19:27.989Z,20.20
2023-02-09T07:19:59.958Z,27.08
2023-02-09T07:20:32.751Z,20.65
2023-02-09T07:21:06.663Z,21.33